createdAt,value
2022-09-28T00:01:16.434Z,11.13
2022-09-28T00:03:43.815Z,10.27
2022-09-28T00:06:12.807Z,11.50
2022-09-28T00:08:39.687Z,9.93
2022-09-28T00:11:08.240Z,12.67
2022-09-28T00:13:35.284Z,17.57
2022-09-28T00:16:11.491Z,10.30
2022-09-28T00:18:38.475Z,10.40
2022-09-28T00:21:05.782Z,10.50
2022-09-28T00:23:33.377Z,9.50
2022-09-28T00:26:05.079Z,8.97
2022-09-28T00:28:32.258Z,11.33
2022-09-28T00:30:59.348Z,11.83
2022-09-28T00:33:26.389Z,11.17
2022-09-28T00:36:00.060Z,8.77
2022-09-28T00:38:28.524Z,12.07
2022-09-28T00:40:56.171Z,7.97
2022-09-28T00:43:24.661Z,9.20
2022-09-28T00:46:31.480Z,8.60
2022-09-28T00:49:08.778Z,12.90
2022-09-28T00:51:38.034Z,7.43
2022-09-28T00:54:07.784Z,8.30
2022-09-28T00:56:40.301Z,8.00
2022-09-28T00:59:09.291Z,10.83
2022-09-28T01:01:36.720Z,8.33
2022-09-28T01:04:04.944Z,10.03
2022-09-28T01:06:36.216Z,7.37
2022-09-28T01:09:06.718Z,10.00
2022-09-28T01:11:38.930Z,8.10
2022-09-28T01:14:11.490Z,9.17
2022-09-28T01:16:42.829Z,8.40
2022-09-28T01:19:28.860Z,10.10
2022-09-28T01:22:32.625Z,8.43
2022-09-28T01:25:34.249Z,9.63
2022-09-28T01:28:14.611Z,8.07
2022-09-28T01:31:06.632Z,7.90
2022-09-28T01:33:46.017Z,8.10
2022-09-28T01:36:19.677Z,9.37
2022-09-28T01:39:02.550Z,8.43
2022-09-28T01:41:31.955Z,8.47
2022-09-28T01:44:02.979Z,8.67
2022-09-28T01:46:38.682Z,8.70
2022-09-28T01:49:22.730Z,6.93
2022-09-28T01:52:05.473Z,7.10
2022-09-28T01:54:42.020Z,8.77
2022-09-28T01:57:20.821Z,11.97
2022-09-28T02:00:01.198Z,7.43
2022-09-28T02:02:35.814Z,11.87
2022-09-28T02:05:16.872Z,8.70
2022-09-28T02:07:54.586Z,8.80
2022-09-28T02:10:29.216Z,9.73
2022-09-28T02:13:05.893Z,9.17
2022-09-28T02:15:51.811Z,10.10
2022-09-28T02:18:18.736Z,9.17
2022-09-28T02:20:53.241Z,10.97
2022-09-28T02:23:22.565Z,8.97
2022-09-28T02:25:58.842Z,10.17
2022-09-28T02:28:25.610Z,10.27
2022-09-28T02:30:52.343Z,9.40
2022-09-28T02:33:24.579Z,9.00
2022-09-28T02:35:51.827Z,10.87
2022-09-28T02:38:18.653Z,9.73
2022-09-28T02:41:10.289Z,10.37
2022-09-28T02:44:13.486Z,8.63
2022-09-28T02:46:59.758Z,7.87
2022-09-28T02:50:03.857Z,8.13
2022-09-28T02:52:48.855Z,9.67
2022-09-28T02:56:04.993Z,10.10
2022-09-28T02:58:52.721Z,5.97
2022-09-28T03:01:25.579Z,7.50
2022-09-28T03:04:08.255Z,6.50
2022-09-28T03:06:52.701Z,6.13
2022-09-28T03:09:29.140Z,6.17
2022-09-28T03:12:04.902Z,4.20
2022-09-28T03:14:31.655Z,3.57
2022-09-28T03:16:58.349Z,7.90
2022-09-28T03:19:30.489Z,9.77
2022-09-28T03:21:57.217Z,4.30
2022-09-28T03:24:23.943Z,4.07
2022-09-28T03:26:50.855Z,4.73
2022-09-28T03:29:17.776Z,4.27
2022-09-28T03:31:44.802Z,5.37
2022-09-28T03:34:11.826Z,3.83
2022-09-28T03:36:38.544Z,4.57
2022-09-28T03:39:05.263Z,2.43
2022-09-28T03:41:31.946Z,3.20
2022-09-28T03:43:58.652Z,4.63
2022-09-28T03:46:25.400Z,3.67
2022-09-28T03:48:52.211Z,1.97
2022-09-28T03:51:18.898Z,2.30
2022-09-28T03:53:45.619Z,2.53
2022-09-28T03:56:14.849Z,3.73
2022-09-28T03:58:42.160Z,3.13
2022-09-28T04:01:16.595Z,7.20
2022-09-28T04:03:44.260Z,2.33
2022-09-28T04:06:11.206Z,1.67
2022-09-28T04:08:38.095Z,3.77
2022-09-28T04:11:04.977Z,2.07
2022-09-28T04:13:32.195Z,2.27
2022-09-28T04:16:00.617Z,4.07
2022-09-28T04:18:28.056Z,3.10
2022-09-28T04:21:10.289Z,4.30
2022-09-28T04:23:38.658Z,2.20
2022-09-28T04:26:07.581Z,5.60
2022-09-28T04:28:52.970Z,3.20
2022-09-28T04:31:23.597Z,1.60
2022-09-28T04:33:50.491Z,3.13
2022-09-28T04:36:19.697Z,1.20
2022-09-28T04:38:53.150Z,2.27
2022-09-28T04:41:22.402Z,3.73
2022-09-28T04:43:50.049Z,2.80
2022-09-28T04:46:17.409Z,5.30
2022-09-28T04:48:44.528Z,2.73
2022-09-28T04:51:11.608Z,3.53
2022-09-28T04:53:38.460Z,2.50
2022-09-28T04:56:08.059Z,2.00
2022-09-28T04:58:35.534Z,1.17
2022-09-28T05:01:06.795Z,2.07
2022-09-28T05:03:34.227Z,0.90
2022-09-28T05:06:01.655Z,2.60
2022-09-28T05:08:28.795Z,2.70
2022-09-28T05:11:00.474Z,4.70
2022-09-28T05:13:28.721Z,2.73
2022-09-28T05:16:05.055Z,1.50
2022-09-28T05:18:32.775Z,3.70
2022-09-28T05:20:59.477Z,4.60
2022-09-28T05:23:26.217Z,2.03
2022-09-28T05:25:53.197Z,2.37
2022-09-28T05:28:27.976Z,1.90
2022-09-28T05:31:00.117Z,2.20
2022-09-28T05:33:27.751Z,2.63
2022-09-28T05:35:59.050Z,2.50
2022-09-28T05:38:27.799Z,2.60
2022-09-28T05:40:54.547Z,1.90
2022-09-28T05:43:21.441Z,1.33
2022-09-28T05:45:52.833Z,3.23
2022-09-28T05:48:21.892Z,3.30
2022-09-28T05:50:52.689Z,1.77
2022-09-28T05:53:19.583Z,1.83
2022-09-28T05:55:46.429Z,1.90
2022-09-28T05:58:13.107Z,3.30
2022-09-28T06:00:39.887Z,2.27
2022-09-28T06:03:10.344Z,3.43
2022-09-28T06:05:39.388Z,2.13
2022-09-28T06:08:08.473Z,2.40
2022-09-28T06:10:35.641Z,0.97
2022-09-28T06:13:02.544Z,1.00
2022-09-28T06:15:31.918Z,3.90
2022-09-28T06:17:59.957Z,3.57
2022-09-28T06:20:28.849Z,1.30
2022-09-28T06:22:55.777Z,1.13
2022-09-28T06:25:23.836Z,5.67
2022-09-28T06:28:01.327Z,3.03
2022-09-28T06:30:29.983Z,1.63
2022-09-28T06:32:58.802Z,2.47
2022-09-28T06:35:27.418Z,3.37
2022-09-28T06:37:54.339Z,2.97
2022-09-28T06:40:22.359Z,2.40
2022-09-28T06:43:00.736Z,2.43
2022-09-28T06:45:29.692Z,3.20
2022-09-28T06:48:00.987Z,1.77
2022-09-28T06:50:33.423Z,1.80
2022-09-28T06:53:01.140Z,3.53
2022-09-28T06:55:28.891Z,2.73
2022-09-28T06:58:07.616Z,3.37
2022-09-28T07:00:36.619Z,3.80
2022-09-28T07:03:05.339Z,1.67
2022-09-28T07:05:35.065Z,2.57
2022-09-28T07:08:02.415Z,2.73
2022-09-28T07:10:30.679Z,2.83
2022-09-28T07:13:01.098Z,2.73
2022-09-28T07:15:29.388Z,4.70
2022-09-28T07:18:03.184Z,1.53
2022-09-28T07:20:39.151Z,3.57
2022-09-28T07:23:19.061Z,3.97
2022-09-28T07:25:47.968Z,4.10
2022-09-28T07:28:15.779Z,3.37
2022-09-28T07:30:44.855Z,2.97
2022-09-28T07:33:14.414Z,1.87
2022-09-28T07:35:44.385Z,4.40
2022-09-28T07:38:11.643Z,3.70
2022-09-28T07:40:57.209Z,4.43
2022-09-28T07:43:24.301Z,4.93
2022-09-28T07:45:52.899Z,3.20
2022-09-28T07:48:20.420Z,5.90
2022-09-28T07:50:52.278Z,1.23
2022-09-28T07:53:23.263Z,2.20
2022-09-28T07:55:54.425Z,2.90
2022-09-28T07:58:21.412Z,2.80
2022-09-28T08:00:49.898Z,1.50
2022-09-28T08:03:18.573Z,5.57
2022-09-28T08:05:46.878Z,1.87
2022-09-28T08:08:14.597Z,1.93
2022-09-28T08:10:47.227Z,1.90
2022-09-28T08:13:15.249Z,2.87
2022-09-28T08:15:42.666Z,1.93
2022-09-28T08:18:09.941Z,6.87
2022-09-28T08:20:55.185Z,1.43
2022-09-28T08:23:23.339Z,2.20
2022-09-28T08:25:54.078Z,4.13
2022-09-28T08:28:22.869Z,3.83
2022-09-28T08:30:50.267Z,1.47
2022-09-28T08:33:20.350Z,2.63
2022-09-28T08:35:48.240Z,3.27
2022-09-28T08:38:15.357Z,8.13
2022-09-28T08:40:57.727Z,1.73
2022-09-28T08:43:34.895Z,3.30
2022-09-28T08:46:01.882Z,3.17
2022-09-28T08:48:52.271Z,2.53
2022-09-28T08:51:53.343Z,1.13
2022-09-28T08:54:38.446Z,4.13
2022-09-28T08:57:15.432Z,1.57
2022-09-28T08:59:48.653Z,4.73
2022-09-28T09:02:23.204Z,1.97
2022-09-28T09:04:52.044Z,0.90
2022-09-28T09:07:28.736Z,1.00
2022-09-28T09:10:04.400Z,1.57
2022-09-28T09:12:40.432Z,2.60
2022-09-28T09:15:17.401Z,1.77
2022-09-28T09:18:10.836Z,2.23
2022-09-28T09:21:07.520Z,2.60
2022-09-28T09:23:53.516Z,0.70
2022-09-28T09:26:26.537Z,3.93
2022-09-28T09:29:14.104Z,1.63
2022-09-28T09:32:05.716Z,1.10
2022-09-28T09:34:44.363Z,2.37
2022-09-28T09:37:26.194Z,2.50
2022-09-28T09:40:07.829Z,4.67
2022-09-28T09:43:13.072Z,1.70
2022-09-28T09:46:06.197Z,2.67
2022-09-28T09:48:46.077Z,5.13
2022-09-28T09:51:33.026Z,1.80
2022-09-28T09:54:03.614Z,1.27
2022-09-28T09:56:40.287Z,2.47
2022-09-28T09:59:24.259Z,1.47
2022-09-28T10:01:53.015Z,1.20
2022-09-28T10:04:43.302Z,1.37
2022-09-28T10:07:18.833Z,4.83
2022-09-28T10:09:48.351Z,1.47
2022-09-28T10:12:20.703Z,0.97
2022-09-28T10:14:47.597Z,0.63
2022-09-28T10:17:20.058Z,2.20
2022-09-28T10:19:47.007Z,2.20
2022-09-28T10:22:20.577Z,1.20
2022-09-28T10:24:51.101Z,0.90
2022-09-28T10:27:30.527Z,1.87
2022-09-28T10:30:09.497Z,3.13
2022-09-28T10:32:40.347Z,0.80
2022-09-28T10:35:19.268Z,1.90
2022-09-28T10:38:07.396Z,0.70
2022-09-28T10:40:43.611Z,3.70
2022-09-28T10:43:33.600Z,1.70
2022-09-28T10:46:09.905Z,1.47
2022-09-28T10:48:50.682Z,3.33
2022-09-28T10:51:17.881Z,2.13
2022-09-28T10:54:01.746Z,1.20
2022-09-28T10:56:35.414Z,3.07
2022-09-28T10:59:02.273Z,1.83
2022-09-28T11:01:33.190Z,0.67
2022-09-28T11:04:20.017Z,1.03
2022-09-28T11:06:47.025Z,1.60
2022-09-28T11:09:30.869Z,1.50
2022-09-28T11:11:59.895Z,1.10
2022-09-28T11:14:31.174Z,2.27
2022-09-28T11:17:30.688Z,1.87
2022-09-28T11:20:19.942Z,1.67
2022-09-28T11:22:51.165Z,0.77
2022-09-28T11:25:18.484Z,0.77
2022-09-28T11:27:51.108Z,2.67
2022-09-28T11:30:42.325Z,1.00
2022-09-28T11:33:26.249Z,2.10
2022-09-28T11:36:14.611Z,0.87
2022-09-28T11:39:02.492Z,1.13
2022-09-28T11:41:50.913Z,1.43
2022-09-28T11:44:41.300Z,0.70
2022-09-28T11:47:32.941Z,2.53
2022-09-28T11:50:24.333Z,1.67
2022-09-28T11:53:11.606Z,1.50
2022-09-28T11:55:51.768Z,0.93
2022-09-28T11:58:23.484Z,1.00
2022-09-28T12:00:59.297Z,0.53
2022-09-28T12:03:34.135Z,1.70
2022-09-28T12:06:06.204Z,1.63
2022-09-28T12:08:42.180Z,2.63
2022-09-28T12:11:19.399Z,3.30
2022-09-28T12:13:49.525Z,1.30
2022-09-28T12:16:53.059Z,1.47
2022-09-28T12:19:20.966Z,0.83
2022-09-28T12:21:51.388Z,1.33
2022-09-28T12:24:42.331Z,0.43
2022-09-28T12:27:20.672Z,0.50
2022-09-28T12:30:01.217Z,0.53
2022-09-28T12:32:38.216Z,0.73
2022-09-28T12:35:24.309Z,0.83
2022-09-28T12:38:24.466Z,0.90
2022-09-28T12:41:23.931Z,1.60
2022-09-28T12:44:06.720Z,0.40
2022-09-28T12:47:11.319Z,1.00
2022-09-28T12:53:19.377Z,1.43
2022-09-28T12:56:16.777Z,1.33
2022-09-28T12:59:17.965Z,1.10
2022-09-28T13:02:34.327Z,1.80
2022-09-28T13:05:05.042Z,1.73
2022-09-28T13:07:42.915Z,1.90
2022-09-28T13:10:12.392Z,1.80
2022-09-28T13:13:12.151Z,3.33
2022-09-28T13:16:02.602Z,2.10
2022-09-28T13:18:43.665Z,1.30
2022-09-28T13:21:28.281Z,3.30
2022-09-28T13:24:09.016Z,1.00
2022-09-28T13:26:44.878Z,2.03
2022-09-28T13:29:14.847Z,3.13
2022-09-28T13:31:55.098Z,0.93
2022-09-28T13:34:25.171Z,1.17
2022-09-28T13:37:25.735Z,0.50
2022-09-28T13:39:56.271Z,2.40
2022-09-28T13:42:51.446Z,1.50
2022-09-28T13:45:21.177Z,2.80
2022-09-28T13:47:59.881Z,2.00
2022-09-28T13:50:36.647Z,3.50
2022-09-28T13:53:27.129Z,1.10
2022-09-28T13:56:17.664Z,0.93
2022-09-28T13:59:03.549Z,0.40
2022-09-28T14:01:37.643Z,1.97
2022-09-28T14:04:21.918Z,2.83
2022-09-28T14:07:08.770Z,1.97
2022-09-28T14:10:16.448Z,1.70
2022-09-28T14:12:45.305Z,1.70
2022-09-28T14:15:30.261Z,0.90
2022-09-28T14:18:25.640Z,1.23
2022-09-28T14:21:19.866Z,1.07
2022-09-28T14:24:19.045Z,0.73
2022-09-28T14:27:14.105Z,0.33
2022-09-28T14:29:41.284Z,0.37
2022-09-28T14:32:10.843Z,1.17
2022-09-28T14:34:46.649Z,3.40
2022-09-28T14:37:43.332Z,2.73
2022-09-28T14:40:35.952Z,1.53
2022-09-28T14:43:24.883Z,1.23
2022-09-28T14:46:17.242Z,0.87
2022-09-28T14:48:52.711Z,1.23
2022-09-28T14:51:30.089Z,0.70
2022-09-28T14:54:08.097Z,0.93
2022-09-28T14:56:58.945Z,2.73
2022-09-28T14:59:30.308Z,4.10
2022-09-28T15:02:27.662Z,2.13
2022-09-28T15:04:56.931Z,1.20
2022-09-28T15:07:30.303Z,3.70
2022-09-28T15:10:00.931Z,0.60
2022-09-28T15:12:30.179Z,1.07
2022-09-28T15:15:05.565Z,2.10
2022-09-28T15:17:39.550Z,1.53
2022-09-28T15:20:33.501Z,0.37
2022-09-28T15:23:00.385Z,0.87
2022-09-28T15:25:32.700Z,0.63
2022-09-28T15:28:17.182Z,0.43
2022-09-28T15:30:43.952Z,0.80
2022-09-28T15:33:43.503Z,0.67
2022-09-28T15:36:28.363Z,1.37
2022-09-28T15:39:12.094Z,1.23
2022-09-28T15:41:39.120Z,0.60
2022-09-28T15:44:25.298Z,1.50
2022-09-28T15:47:23.880Z,0.33
2022-09-28T15:49:58.618Z,1.03
2022-09-28T15:52:43.725Z,1.30
2022-09-28T15:55:30.469Z,1.33
2022-09-28T15:58:06.328Z,0.83
2022-09-28T16:00:33.534Z,0.77
2022-09-28T16:03:20.407Z,0.40
2022-09-28T16:06:08.877Z,0.90
2022-09-28T16:08:42.111Z,0.87
2022-09-28T16:11:14.724Z,1.47
2022-09-28T16:14:29.120Z,0.40
2022-09-28T16:16:58.379Z,2.40
2022-09-28T16:19:32.282Z,0.77
2022-09-28T16:22:02.439Z,0.90
2022-09-28T16:24:35.111Z,1.13
2022-09-28T16:27:08.186Z,0.40
2022-09-28T16:29:40.542Z,0.53
2022-09-28T16:32:25.674Z,0.67
2022-09-28T16:35:13.664Z,0.80
2022-09-28T16:37:42.581Z,0.73
2022-09-28T16:40:10.724Z,0.40
2022-09-28T16:42:45.473Z,0.73
2022-09-28T16:45:20.686Z,0.40
2022-09-28T16:47:51.954Z,0.67
2022-09-28T16:50:22.563Z,1.03
2022-09-28T16:53:16.014Z,0.53
2022-09-28T16:55:43.021Z,0.93
2022-09-28T16:58:09.933Z,1.40
2022-09-28T17:00:36.801Z,2.03
2022-09-28T17:03:13.075Z,0.67
2022-09-28T17:05:40.225Z,1.93
2022-09-28T17:08:08.933Z,1.37
2022-09-28T17:10:56.083Z,0.70
2022-09-28T17:13:33.223Z,0.40
2022-09-28T17:16:01.692Z,0.77
2022-09-28T17:18:31.802Z,0.20
2022-09-28T17:21:03.122Z,1.80
2022-09-28T17:23:30.518Z,0.40
2022-09-28T17:25:59.124Z,0.40
2022-09-28T17:28:37.195Z,0.50
2022-09-28T17:31:06.949Z,0.50
2022-09-28T17:33:33.702Z,2.07
2022-09-28T17:36:02.510Z,0.40
2022-09-28T17:38:29.352Z,1.83
2022-09-28T17:40:56.273Z,0.60
2022-09-28T17:43:23.024Z,1.33
2022-09-28T17:45:50.686Z,0.53
2022-09-28T17:48:23.310Z,0.80
2022-09-28T17:50:50.636Z,0.63
2022-09-28T17:53:17.370Z,1.23
2022-09-28T17:55:44.304Z,0.80
2022-09-28T17:58:22.165Z,0.60
2022-09-28T18:00:51.410Z,1.63
2022-09-28T18:03:23.486Z,1.83
2022-09-28T18:05:59.136Z,0.90
2022-09-28T18:08:25.858Z,2.00
2022-09-28T18:10:52.600Z,1.43
2022-09-28T18:13:19.276Z,1.57
2022-09-28T18:15:46.133Z,1.63
2022-09-28T18:18:13.002Z,3.23
2022-09-28T18:20:41.278Z,2.63
2022-09-28T18:23:08.014Z,1.73
2022-09-28T18:25:34.726Z,3.77
2022-09-28T18:28:01.523Z,3.37
2022-09-28T18:30:28.395Z,2.00
2022-09-28T18:32:55.581Z,3.00
2022-09-28T18:35:23.324Z,2.17
2022-09-28T18:37:50.539Z,3.67
2022-09-28T18:40:17.593Z,2.63
2022-09-28T18:42:44.328Z,2.93
2022-09-28T18:45:11.390Z,2.33
2022-09-28T18:47:39.041Z,3.13
2022-09-28T18:50:06.255Z,3.83
2022-09-28T18:52:36.515Z,4.17
2022-09-28T18:55:05.212Z,2.73
2022-09-28T18:57:33.518Z,1.67
2022-09-28T19:00:01.153Z,2.77
2022-09-28T19:02:28.118Z,3.13
2022-09-28T19:04:54.919Z,4.70
2022-09-28T19:07:21.684Z,4.43
2022-09-28T19:09:48.448Z,2.70
2022-09-28T19:12:15.255Z,2.60
2022-09-28T19:14:41.980Z,3.03
2022-09-28T19:17:08.705Z,3.80
2022-09-28T19:19:35.738Z,2.17
2022-09-28T19:22:02.536Z,3.60
2022-09-28T19:24:29.243Z,4.30
2022-09-28T19:26:56.603Z,3.83
2022-09-28T19:29:23.388Z,4.07
2022-09-28T19:31:50.125Z,3.27
2022-09-28T19:34:17.086Z,2.33
2022-09-28T19:36:44.292Z,4.53
2022-09-28T19:39:14.601Z,3.23
2022-09-28T19:41:44.800Z,1.83
2022-09-28T19:44:27.203Z,1.53
2022-09-28T19:47:06.727Z,1.77
2022-09-28T19:49:37.978Z,1.77
2022-09-28T19:52:14.314Z,3.40
2022-09-28T19:55:00.152Z,3.70
2022-09-28T19:57:31.011Z,2.63
2022-09-28T20:00:02.040Z,3.63
2022-09-28T20:02:29.909Z,2.27
2022-09-28T20:04:56.732Z,2.43
2022-09-28T20:07:23.523Z,2.53
2022-09-28T20:09:50.631Z,2.33
2022-09-28T20:12:17.441Z,3.40
2022-09-28T20:14:44.277Z,2.07
2022-09-28T20:17:11.194Z,3.67
2022-09-28T20:19:38.269Z,2.90
2022-09-28T20:22:07.515Z,2.40
2022-09-28T20:24:34.442Z,2.17
2022-09-28T20:27:01.746Z,3.27
2022-09-28T20:29:31.366Z,3.57
2022-09-28T20:31:58.228Z,3.33
2022-09-28T20:34:24.960Z,4.70
2022-09-28T20:36:51.636Z,2.93
2022-09-28T20:39:18.714Z,3.13
2022-09-28T20:41:47.177Z,2.43
2022-09-28T20:44:13.946Z,3.13
2022-09-28T20:46:40.817Z,4.43
2022-09-28T20:49:07.820Z,4.17
2022-09-28T20:51:34.681Z,4.23
2022-09-28T20:54:01.501Z,3.50
2022-09-28T20:56:39.959Z,2.50
2022-09-28T20:59:11.954Z,2.23
2022-09-28T21:01:39.114Z,2.80
2022-09-28T21:04:07.939Z,3.83
2022-09-28T21:06:37.309Z,3.60
2022-09-28T21:09:05.539Z,3.00
2022-09-28T21:11:34.267Z,3.70
2022-09-28T21:14:03.142Z,2.73
2022-09-28T21:16:31.652Z,4.93
2022-09-28T21:18:58.668Z,2.23
2022-09-28T21:21:26.561Z,3.80
2022-09-28T21:23:54.723Z,3.70
2022-09-28T21:26:26.680Z,3.43
2022-09-28T21:28:55.544Z,3.37
2022-09-28T21:31:28.918Z,3.30
2022-09-28T21:33:57.130Z,3.80
2022-09-28T21:36:24.468Z,2.90
2022-09-28T21:38:51.440Z,3.67
2022-09-28T21:41:18.151Z,3.27
2022-09-28T21:43:45.909Z,2.97
2022-09-28T21:46:12.797Z,3.00
2022-09-28T21:48:39.601Z,10.03
2022-09-28T21:51:09.220Z,6.03
2022-09-28T21:53:37.758Z,3.97
2022-09-28T21:56:06.766Z,2.63
2022-09-28T21:58:35.631Z,4.13
2022-09-28T22:01:14.668Z,3.77
2022-09-28T22:03:44.058Z,4.93
2022-09-28T22:06:11.668Z,2.60
2022-09-28T22:08:38.737Z,3.70
2022-09-28T22:11:11.192Z,2.83
2022-09-28T22:13:42.647Z,3.70
2022-09-28T22:16:10.815Z,4.13
2022-09-28T22:18:37.825Z,2.37
2022-09-28T22:21:17.146Z,5.70
2022-09-28T22:23:44.235Z,5.23
2022-09-28T22:26:21.606Z,3.20
2022-09-28T22:28:54.157Z,2.80
2022-09-28T22:31:26.803Z,6.97
2022-09-28T22:33:53.776Z,4.47
2022-09-28T22:36:20.989Z,4.10
2022-09-28T22:38:48.685Z,4.60
2022-09-28T22:41:17.411Z,3.90
2022-09-28T22:43:44.426Z,4.90
2022-09-28T22:46:16.627Z,6.53
2022-09-28T22:48:47.724Z,3.83
2022-09-28T22:51:15.276Z,3.20
2022-09-28T22:53:42.646Z,3.90
2022-09-28T22:56:12.581Z,4.70
2022-09-28T22:58:43.474Z,3.93
2022-09-28T23:01:11.274Z,4.80
2022-09-28T23:03:40.393Z,3.70
2022-09-28T23:06:07.530Z,4.97
2022-09-28T23:08:34.868Z,6.53
2022-09-28T23:11:02.174Z,7.47
2022-09-28T23:13:31.074Z,5.07
2022-09-28T23:15:59.715Z,7.93
2022-09-28T23:18:29.531Z,3.80
2022-09-28T23:20:58.420Z,4.77
2022-09-28T23:23:25.815Z,5.67
2022-09-28T23:25:53.460Z,5.30
2022-09-28T23:28:21.405Z,4.23
2022-09-28T23:30:48.691Z,7.13
2022-09-28T23:33:16.759Z,5.43
2022-09-28T23:35:44.013Z,5.53
2022-09-28T23:38:13.477Z,3.93
2022-09-28T23:40:41.163Z,5.60
2022-09-28T23:43:08.484Z,7.33
2022-09-28T23:45:35.273Z,6.27
2022-09-28T23:48:02.619Z,4.47
2022-09-28T23:50:29.349Z,4.37
2022-09-28T23:52:56.189Z,5.40
2022-09-28T23:55:22.965Z,4.87
2022-09-28T23:57:49.675Z,5.13
